Time;durP1;ratioP1;P1;durP2;ratioP2;P2;SDS_P1;SDS_P2;PMS_P1;PMS_P2;Temp;Humidity;BMP_temperature;BMP_pressure;BME280_temperature;BME280_humidity;BME280_pressure;Samples;Min_cycle;Max_cycle;Signal;HPM_P1;HPM_P2
2023/05/15 00:00:05;;;;;;;5.20;2.40;;;33.50;70.90;;;;;;4898831;29;20218;-92
2023/05/15 00:05:18;;;;;;;2.67;2.08;;;33.50;70.80;;;;;;5039646;27;3100618;-92
2023/05/15 00:07:50;;;;;;;3.00;2.40;;;33.60;71.10;;;;;;5131655;28;20209;-92
2023/05/15 00:10:21;;;;;;;2.58;2.33;;;33.70;70.10;;;;;;5115337;28;20198;-91
2023/05/15 00:12:52;;;;;;;6.40;2.40;;;33.70;71.30;;;;;;5134096;28;20205;-92
2023/05/15 00:15:24;;;;;;;3.28;2.25;;;33.50;72.10;;;;;;5133722;28;20201;-91
2023/05/15 00:17:56;;;;;;;4.85;2.20;;;33.50;70.00;;;;;;5132403;28;20558;-92
2023/05/15 00:20:29;;;;;;;3.67;2.33;;;33.20;71.00;;;;;;5132331;28;20202;-91
2023/05/15 00:23:02;;;;;;;4.72;2.30;;;33.20;70.60;;;;;;5146714;27;20186;-92
2023/05/15 00:25:33;;;;;;;3.08;2.28;;;33.10;70.40;;;;;;5137571;27;20532;-92
2023/05/15 00:28:05;;;;;;;3.88;2.50;;;33.10;68.90;;;;;;5150467;27;20210;-92
2023/05/15 00:30:36;;;;;;;5.82;2.45;;;33.00;69.80;;;;;;5117919;28;20655;-91
2023/05/15 00:33:07;;;;;;;4.10;2.15;;;32.90;71.50;;;;;;5122993;28;20558;-93
2023/05/15 00:35:40;;;;;;;3.80;2.40;;;33.00;70.90;;;;;;5117166;28;20209;-91
2023/05/15 00:38:12;;;;;;;2.65;2.30;;;33.00;69.40;;;;;;5131090;28;20204;-92
2023/05/15 00:40:44;;;;;;;7.40;2.45;;;32.80;68.40;;;;;;5132062;28;20209;-92
2023/05/15 00:43:17;;;;;;;4.32;2.58;;;32.70;70.30;;;;;;5094106;28;20222;-92
2023/05/15 00:45:49;;;;;;;4.00;3.20;;;32.70;69.10;;;;;;5111091;28;20207;-91
2023/05/15 00:48:22;;;;;;;4.47;2.35;;;32.60;69.30;;;;;;5118100;28;20206;-92
2023/05/15 00:50:58;;;;;;;2.47;2.28;;;32.70;70.30;;;;;;5124787;28;20599;-91
2023/05/15 00:53:30;;;;;;;3.72;2.45;;;32.70;71.00;;;;;;5131270;28;20638;-93
2023/05/15 00:56:02;;;;;;;5.22;2.60;;;32.80;70.50;;;;;;5130924;28;20629;-92
2023/05/15 00:58:36;;;;;;;2.92;2.60;;;33.00;71.50;;;;;;5110158;28;20202;-91
2023/05/15 01:01:08;;;;;;;2.50;2.30;;;33.20;68.50;;;;;;5110937;28;20202;-91
2023/05/15 01:03:39;;;;;;;3.00;2.38;;;33.50;69.70;;;;;;5110394;28;20234;-92
2023/05/15 01:06:13;;;;;;;3.90;2.60;;;33.80;70.20;;;;;;5110752;28;20202;-92
2023/05/15 01:08:47;;;;;;;5.78;2.40;;;34.40;67.50;;;;;;5110406;28;20213;-92
2023/05/15 01:11:19;;;;;;;5.47;2.70;;;34.80;69.00;;;;;;5109951;28;20206;-95
2023/05/15 01:13:50;;;;;;;3.65;2.60;;;35.10;67.20;;;;;;5110598;28;20210;-92
2023/05/15 01:16:23;;;;;;;3.97;2.10;;;35.00;65.10;;;;;;5105902;28;20210;-93
2023/05/15 01:18:54;;;;;;;3.58;2.50;;;35.20;65.30;;;;;;5095356;28;20663;-92
2023/05/15 01:22:19;;;;;;;3.33;2.30;;;35.40;65.50;;;;;;5097591;28;20210;-92
2023/05/15 01:25:13;;;;;;;5.50;2.40;;;35.40;64.40;;;;;;5107647;28;20234;-91
2023/05/15 01:27:48;;;;;;;6.25;2.80;;;35.40;65.40;;;;;;5095983;28;20207;-92
2023/05/15 01:30:24;;;;;;;4.50;2.38;;;35.10;65.50;;;;;;5096797;28;20199;-91
2023/05/15 01:33:02;;;;;;;4.40;2.30;;;35.20;63.40;;;;;;5116479;28;20209;-91
2023/05/15 01:35:39;;;;;;;2.35;2.15;;;35.00;64.40;;;;;;5102916;28;20290;-92
2023/05/15 01:38:17;;;;;;;2.40;1.88;;;35.20;65.00;;;;;;5114099;28;20628;-92
2023/05/15 01:40:52;;;;;;;3.90;1.60;;;34.90;61.20;;;;;;5116534;28;20214;-91
2023/05/15 01:43:31;;;;;;;1.70;1.38;;;34.60;61.30;;;;;;5117096;28;20209;-94
2023/05/15 01:46:03;;;;;;;2.50;1.80;;;34.10;62.50;;;;;;5099977;28;20635;-91
2023/05/15 01:48:36;;;;;;;2.40;1.83;;;33.50;63.40;;;;;;5116226;28;20266;-92
2023/05/15 01:51:12;;;;;;;3.47;1.80;;;33.00;62.60;;;;;;5100224;28;20834;-93
2023/05/15 01:53:45;;;;;;;1.40;1.30;;;32.60;64.10;;;;;;5099389;28;20266;-92
2023/05/15 01:56:18;;;;;;;2.58;1.38;;;32.30;62.60;;;;;;5114619;28;20220;-92
2023/05/15 01:58:53;;;;;;;1.88;1.20;;;32.10;63.80;;;;;;5096289;28;20655;-92
2023/05/15 02:01:25;;;;;;;1.52;1.33;;;31.90;62.40;;;;;;5098141;28;20219;-91
2023/05/15 02:03:57;;;;;;;1.23;1.13;;;31.60;65.60;;;;;;5097896;28;20724;-91
2023/05/15 02:06:30;;;;;;;1.65;1.50;;;31.30;65.30;;;;;;5117671;28;20228;-91
2023/05/15 02:09:04;;;;;;;1.50;1.40;;;31.10;64.90;;;;;;5116774;28;20241;-91
2023/05/15 02:11:36;;;;;;;1.92;1.33;;;30.90;67.50;;;;;;5100595;28;20213;-92
2023/05/15 02:14:12;;;;;;;3.25;1.40;;;30.70;65.80;;;;;;5117184;28;20252;-91
2023/05/15 02:16:43;;;;;;;1.92;1.20;;;30.50;66.70;;;;;;5117695;28;20225;-89
2023/05/15 02:19:15;;;;;;;1.95;1.40;;;30.40;64.10;;;;;;5098812;28;20202;-91
2023/05/15 02:21:47;;;;;;;1.98;1.40;;;30.30;66.70;;;;;;5117402;28;20285;-90
2023/05/15 02:24:18;;;;;;;1.52;1.30;;;30.10;66.30;;;;;;5116644;28;20252;-91
2023/05/15 02:26:57;;;;;;;1.67;1.45;;;30.00;66.90;;;;;;5099913;28;20976;-90
2023/05/15 02:29:37;;;;;;;1.30;1.20;;;30.00;66.90;;;;;;5120364;28;20283;-90
2023/05/15 02:32:15;;;;;;;1.40;1.30;;;29.80;65.50;;;;;;5121833;28;20194;-91
2023/05/15 02:34:54;;;;;;;3.60;1.40;;;29.70;67.20;;;;;;5121012;28;20203;-91
2023/05/15 02:37:31;;;;;;;1.75;1.20;;;29.60;68.90;;;;;;5098663;28;20215;-90
2023/05/15 02:40:05;;;;;;;1.30;1.20;;;29.50;66.10;;;;;;5114736;28;20199;-91
2023/05/15 02:42:38;;;;;;;1.50;1.40;;;29.50;65.60;;;;;;5100449;28;20191;-91
2023/05/15 02:45:13;;;;;;;4.80;1.42;;;29.50;66.40;;;;;;5117297;28;20223;-90
2023/05/15 02:47:44;;;;;;;1.45;1.35;;;29.40;66.70;;;;;;5106740;28;20699;-90
2023/05/15 02:50:16;;;;;;;1.88;1.42;;;29.30;67.70;;;;;;5114745;28;20208;-90
2023/05/15 02:52:47;;;;;;;2.05;1.30;;;29.10;69.40;;;;;;5116160;28;20218;-91
2023/05/15 02:55:19;;;;;;;5.30;1.40;;;29.00;70.80;;;;;;5116100;28;20198;-91
2023/05/15 02:57:50;;;;;;;1.50;1.35;;;28.80;72.20;;;;;;5112981;28;20203;-90
2023/05/15 03:00:24;;;;;;;2.15;1.33;;;28.60;74.10;;;;;;5107927;28;20255;-90
2023/05/15 03:02:56;;;;;;;3.10;1.20;;;28.50;73.10;;;;;;5115817;28;20202;-91
2023/05/15 03:05:27;;;;;;;1.95;1.10;;;28.40;71.00;;;;;;5106404;28;20294;-93
2023/05/15 03:07:59;;;;;;;1.55;1.45;;;28.40;70.00;;;;;;5094626;28;20314;-91
2023/05/15 03:10:30;;;;;;;2.08;1.50;;;28.30;71.20;;;;;;5105899;28;20199;-91
2023/05/15 03:13:02;;;;;;;2.00;1.55;;;28.30;72.30;;;;;;5208656;22;20235;-96
2023/05/15 04:31:07;;;;;;;4.30;2.03;;;24.10;90.70;;;;;;4984073;28;20222;-96
2023/05/15 04:33:50;;;;;;;2.00;1.57;;;24.00;91.20;;;;;;4986200;28;20198;-96
2023/05/15 04:36:43;;;;;;;1.90;1.70;;;23.90;91.30;;;;;;4992839;28;20214;-96
2023/05/15 04:42:23;;;;;;;3.13;1.83;;;23.70;91.10;;;;;;4994428;28;20207;-96
2023/05/15 04:45:02;;;;;;;1.77;1.67;;;23.60;91.80;;;;;;4982360;28;20207;-96
2023/05/15 04:47:44;;;;;;;3.03;2.00;;;23.60;91.80;;;;;;4995256;28;20574;-96
2023/05/15 04:50:24;;;;;;;2.17;1.97;;;23.50;92.00;;;;;;4991042;28;20238;-96
2023/05/15 05:23:20;;;;;;;2.70;1.70;;;23.10;93.50;;;;;;5006938;23;20306;-97
2023/05/15 05:25:54;;;;;;;1.93;1.80;;;23.00;93.30;;;;;;4990646;28;20199;-96
2023/05/15 05:28:27;;;;;;;1.93;1.57;;;22.90;93.70;;;;;;4997597;28;20242;-96
2023/05/15 05:30:58;;;;;;;2.33;1.80;;;22.90;93.50;;;;;;4997898;28;20187;-96
2023/05/15 05:33:30;;;;;;;2.00;1.70;;;22.80;93.40;;;;;;4998045;28;20199;-96
2023/05/15 05:39:04;;;;;;;1.83;1.70;;;22.70;93.70;;;;;;4990633;28;20225;-96
2023/05/15 05:46:55;;;;;;;2.23;1.60;;;22.50;93.70;;;;;;5240411;23;20227;-96
2023/05/15 05:49:28;;;;;;;1.70;1.60;;;22.50;93.70;;;;;;4968974;28;20215;-96
2023/05/15 05:52:09;;;;;;;2.97;1.90;;;22.50;94.10;;;;;;4962076;28;20218;-96
2023/05/15 05:54:40;;;;;;;2.20;1.80;;;22.40;94.60;;;;;;4952031;29;20230;-96
2023/05/15 05:57:13;;;;;;;3.17;1.70;;;22.40;94.60;;;;;;4954745;29;20303;-96
2023/05/15 05:59:45;;;;;;;2.53;1.80;;;22.30;94.60;;;;;;4954881;28;20218;-96
2023/05/15 06:02:21;;;;;;;2.17;1.83;;;22.30;94.90;;;;;;5051574;23;20250;-96
2023/05/15 06:08:02;;;;;;;2.37;2.13;;;22.20;95.30;;;;;;5017855;28;20257;-96
2023/05/15 11:36:08;;;;;;;3.23;2.53;;;17.10;99.90;;;;;;5345042;23;20269;-95
2023/05/15 11:38:42;;;;;;;4.53;2.57;;;17.00;99.90;;;;;;4939101;29;20233;-96
2023/05/15 15:41:37;;;;;;;6.03;3.33;;;22.10;99.90;;;;;;5086217;23;20333;-96
2023/05/15 15:44:09;;;;;;;3.47;3.03;;;22.10;99.90;;;;;;4938766;29;20220;-96
2023/05/15 16:38:04;;;;;;;5.23;4.13;;;23.60;99.90;;;;;;5138682;23;20251;-90
2023/05/15 16:40:35;;;;;;;5.40;3.57;;;23.70;99.90;;;;;;4901471;29;20240;-93
2023/05/15 16:43:06;;;;;;;6.57;4.13;;;23.80;99.90;;;;;;4898986;29;20213;-92
2023/05/15 16:45:37;;;;;;;5.33;3.60;;;23.90;99.90;;;;;;4915550;29;20269;-91
2023/05/15 16:48:09;;;;;;;6.67;3.20;;;24.00;99.90;;;;;;4916789;29;20932;-91
2023/05/15 16:50:43;;;;;;;8.43;3.97;;;24.10;99.90;;;;;;4927241;29;20336;-91
2023/05/15 16:53:17;;;;;;;6.83;4.70;;;24.20;99.90;;;;;;4902983;29;20670;-91
2023/05/15 16:55:49;;;;;;;4.70;4.00;;;24.20;99.90;;;;;;4913597;29;20209;-92
2023/05/15 16:58:22;;;;;;;9.77;5.40;;;24.30;99.90;;;;;;4926434;29;20216;-91
2023/05/15 17:00:52;;;;;;;6.40;4.50;;;24.40;99.90;;;;;;4901353;29;20273;-91
2023/05/15 17:03:25;;;;;;;6.97;4.50;;;24.50;99.90;;;;;;4912872;29;20213;-91
2023/05/15 17:05:56;;;;;;;5.20;3.20;;;24.60;99.90;;;;;;4943123;29;20215;-91
2023/05/15 17:08:28;;;;;;;8.43;3.83;;;24.70;99.90;;;;;;4938183;29;20283;-91
2023/05/15 17:11:01;;;;;;;3.90;2.93;;;24.80;99.90;;;;;;4914061;29;20210;-92
2023/05/15 17:13:32;;;;;;;8.27;3.60;;;24.90;99.90;;;;;;4916458;29;20228;-92
2023/05/15 17:16:04;;;;;;;4.90;4.23;;;25.00;99.90;;;;;;4906877;29;20209;-93
2023/05/15 17:18:38;;;;;;;4.77;3.40;;;25.10;99.90;;;;;;4920333;29;20233;-93
2023/05/15 17:21:10;;;;;;;5.43;3.73;;;25.20;99.90;;;;;;4920071;29;20225;-91
2023/05/15 17:23:44;;;;;;;10.43;4.87;;;25.40;99.90;;;;;;4921832;29;20260;-92
2023/05/15 17:26:16;;;;;;;4.67;2.90;;;25.50;99.90;;;;;;4925441;29;20220;-92
2023/05/15 17:28:48;;;;;;;4.30;3.30;;;25.60;99.90;;;;;;4913983;29;20210;-91
2023/05/15 17:31:19;;;;;;;6.60;4.13;;;25.70;99.90;;;;;;4924868;29;20290;-92
2023/05/15 17:33:51;;;;;;;6.37;3.47;;;25.80;99.90;;;;;;4907280;29;20316;-92
2023/05/15 17:36:22;;;;;;;8.37;4.30;;;25.90;99.90;;;;;;4908041;29;20698;-90
2023/05/15 17:38:58;;;;;;;6.00;3.30;;;26.00;99.90;;;;;;4914246;29;20217;-94
2023/05/15 17:41:29;;;;;;;9.50;4.67;;;26.20;99.90;;;;;;4914618;29;20205;-92
2023/05/15 17:44:01;;;;;;;6.50;3.53;;;26.30;99.90;;;;;;4929960;29;20659;-93
2023/05/15 17:46:33;;;;;;;9.40;5.23;;;26.40;99.90;;;;;;4905684;29;20230;-93
2023/05/15 17:49:05;;;;;;;10.63;7.00;;;26.50;99.90;;;;;;4908105;29;20220;-92
2023/05/15 17:51:37;;;;;;;13.90;6.20;;;26.50;99.90;;;;;;4911344;29;20213;-89
2023/05/15 17:54:10;;;;;;;7.53;5.40;;;26.60;99.90;;;;;;4920464;29;20209;-91
2023/05/15 17:56:41;;;;;;;7.67;5.93;;;26.80;99.90;;;;;;4918702;29;20303;-92
2023/05/15 17:59:15;;;;;;;5.53;3.00;;;26.80;99.90;;;;;;4911920;29;20220;-91
2023/05/15 18:01:47;;;;;;;10.97;6.50;;;26.80;99.90;;;;;;4898835;29;20618;-88
2023/05/15 18:04:19;;;;;;;7.03;3.57;;;27.00;99.90;;;;;;4928082;29;20213;-90
2023/05/15 18:06:50;;;;;;;5.83;3.20;;;27.10;99.90;;;;;;4916275;29;20270;-90
2023/05/15 18:09:23;;;;;;;7.33;4.60;;;27.30;99.90;;;;;;4929454;29;20227;-91
2023/05/15 18:11:54;;;;;;;8.37;3.63;;;27.30;99.90;;;;;;4917799;29;20260;-91
2023/05/15 18:14:25;;;;;;;8.07;6.70;;;27.40;99.90;;;;;;4932341;29;20205;-92
2023/05/15 18:16:57;;;;;;;6.53;4.23;;;27.40;99.90;;;;;;4926647;29;20281;-90
2023/05/15 18:19:28;;;;;;;4.80;3.17;;;27.50;99.90;;;;;;4923278;29;20242;-92
2023/05/15 18:22:02;;;;;;;8.90;3.80;;;27.50;99.90;;;;;;4936357;28;20208;-92
2023/05/15 18:24:35;;;;;;;5.88;3.83;;;27.60;99.90;;;;;;4925709;29;20189;-92
2023/05/15 18:27:06;;;;;;;4.57;3.97;;;27.70;99.90;;;;;;4928776;29;20304;-93
2023/05/15 18:29:37;;;;;;;6.00;4.90;;;27.90;99.90;;;;;;4925626;29;20237;-93
2023/05/15 18:32:09;;;;;;;8.37;4.23;;;27.90;99.90;;;;;;4929597;29;20214;-93
2023/05/15 18:34:40;;;;;;;4.75;3.85;;;27.90;99.90;;;;;;4901277;29;20626;-92
2023/05/15 18:37:11;;;;;;;3.93;3.60;;;27.90;99.90;;;;;;4920199;29;20251;-92
2023/05/15 18:39:46;;;;;;;6.37;4.50;;;28.10;99.90;;;;;;4919743;29;20209;-93
2023/05/15 18:42:18;;;;;;;6.28;4.00;;;28.20;99.90;;;;;;4918399;29;20212;-92
2023/05/15 18:44:49;;;;;;;5.95;4.43;;;28.30;99.90;;;;;;4921221;29;20198;-93
2023/05/15 18:47:20;;;;;;;7.03;3.60;;;28.50;99.90;;;;;;4915601;29;20233;-94
2023/05/15 18:49:52;;;;;;;8.23;3.00;;;28.60;99.90;;;;;;4920152;29;20193;-92
2023/05/15 18:52:25;;;;;;;3.55;3.10;;;28.60;99.90;;;;;;4936764;29;20209;-91
2023/05/15 18:55:00;;;;;;;5.35;3.38;;;28.60;99.90;;;;;;4943339;29;20200;-92
2023/05/15 18:57:31;;;;;;;3.70;3.30;;;28.60;99.90;;;;;;4935597;29;20273;-91
2023/05/15 19:00:02;;;;;;;5.97;4.60;;;28.70;99.90;;;;;;4922794;29;20220;-92
2023/05/15 19:02:34;;;;;;;4.80;3.70;;;28.50;99.90;;;;;;4909390;29;20213;-92
2023/05/15 19:05:06;;;;;;;3.80;3.25;;;28.50;99.90;;;;;;4911658;29;20213;-92
2023/05/15 19:07:37;;;;;;;5.15;3.85;;;28.70;99.90;;;;;;4908662;29;20213;-91
2023/05/15 19:10:12;;;;;;;4.90;4.13;;;28.60;99.90;;;;;;4920884;29;20213;-91
2023/05/15 19:12:45;;;;;;;6.55;4.25;;;28.60;99.90;;;;;;4918635;29;20212;-93
2023/05/15 19:15:17;;;;;;;3.65;3.25;;;28.50;99.90;;;;;;4917252;29;20215;-92
2023/05/15 19:17:48;;;;;;;4.88;3.83;;;28.60;99.90;;;;;;4918037;29;20241;-92
2023/05/15 19:20:19;;;;;;;4.60;3.90;;;28.80;99.90;;;;;;4909152;29;20264;-92
2023/05/15 19:22:50;;;;;;;4.90;3.30;;;28.90;99.90;;;;;;4916763;29;20205;-92
2023/05/15 19:25:24;;;;;;;6.85;3.10;;;29.00;99.90;;;;;;4910263;29;20213;-91
2023/05/15 19:27:56;;;;;;;4.25;3.85;;;29.10;99.90;;;;;;4916784;29;20288;-93
2023/05/15 19:30:27;;;;;;;3.40;3.10;;;29.10;99.90;;;;;;4933261;29;20216;-93
2023/05/15 19:32:59;;;;;;;3.60;3.30;;;29.30;99.90;;;;;;4908091;29;20217;-92
2023/05/15 19:35:32;;;;;;;5.97;3.45;;;29.40;99.90;;;;;;4910829;29;20218;-92
2023/05/15 19:38:07;;;;;;;4.78;3.58;;;29.40;99.90;;;;;;4930085;29;20268;-93
2023/05/15 19:40:43;;;;;;;3.92;3.40;;;29.30;99.50;;;;;;4927063;29;20205;-92
2023/05/15 19:43:14;;;;;;;6.53;3.80;;;29.30;99.90;;;;;;4916548;29;20662;-93
2023/05/15 19:45:45;;;;;;;4.05;2.97;;;29.60;99.90;;;;;;4938275;29;20667;-93
2023/05/15 19:48:17;;;;;;;4.50;2.85;;;29.80;99.20;;;;;;4916702;29;20212;-92
2023/05/15 19:50:49;;;;;;;3.53;3.22;;;30.10;99.10;;;;;;4927878;29;20209;-91
2023/05/15 19:53:20;;;;;;;3.80;3.35;;;30.20;98.20;;;;;;4917540;29;20209;-94
2023/05/15 19:58:39;;;;;;;4.13;3.72;;;30.00;96.70;;;;;;4919541;29;20701;-91
2023/05/15 20:01:10;;;;;;;4.28;3.88;;;30.20;97.80;;;;;;4917261;29;20675;-92
2023/05/15 20:03:42;;;;;;;6.72;3.55;;;30.40;98.60;;;;;;4915765;29;20529;-90
2023/05/15 20:06:13;;;;;;;3.67;3.10;;;30.50;96.40;;;;;;4914436;29;20213;-91
2023/05/15 20:08:45;;;;;;;3.72;3.30;;;30.40;96.10;;;;;;4910218;29;20699;-91
2023/05/15 20:11:17;;;;;;;4.63;3.38;;;30.50;96.60;;;;;;4921830;29;20209;-92
2023/05/15 20:13:49;;;;;;;5.55;4.00;;;30.70;96.00;;;;;;4922414;29;20204;-93
2023/05/15 20:16:20;;;;;;;3.63;3.20;;;30.80;96.60;;;;;;4917732;29;20205;-93
2023/05/15 20:18:54;;;;;;;3.47;3.15;;;30.90;95.90;;;;;;4906217;29;20241;-92
2023/05/15 20:21:25;;;;;;;5.30;3.83;;;30.90;95.20;;;;;;4903316;29;20212;-92
2023/05/15 20:23:56;;;;;;;6.60;3.45;;;30.70;95.40;;;;;;4903223;29;20217;-93
2023/05/15 20:26:29;;;;;;;4.35;3.58;;;30.80;95.40;;;;;;4919468;29;20217;-92
2023/05/15 20:29:00;;;;;;;5.22;3.30;;;30.90;95.30;;;;;;4922680;29;20209;-92
2023/05/15 20:31:32;;;;;;;4.43;3.25;;;30.70;95.00;;;;;;4912521;29;20298;-91
2023/05/15 20:34:06;;;;;;;4.60;3.90;;;30.90;94.80;;;;;;4940137;29;20240;-92
2023/05/15 20:36:37;;;;;;;4.63;4.18;;;30.90;95.20;;;;;;4931508;29;20230;-93
2023/05/15 20:39:09;;;;;;;3.80;3.22;;;31.20;95.10;;;;;;4922943;29;20269;-92
2023/05/15 20:41:45;;;;;;;3.28;3.08;;;31.50;94.30;;;;;;4937359;29;20211;-92
2023/05/15 20:44:16;;;;;;;5.53;3.17;;;32.00;93.60;;;;;;4922508;29;20217;-92
2023/05/15 20:46:47;;;;;;;4.18;2.95;;;32.20;93.10;;;;;;4908519;29;20214;-92
2023/05/15 20:49:18;;;;;;;4.00;2.90;;;32.10;92.70;;;;;;4902266;29;20210;-92
2023/05/15 20:51:49;;;;;;;4.53;3.00;;;32.10;92.60;;;;;;4926875;29;20256;-92
2023/05/15 20:54:21;;;;;;;6.70;3.65;;;32.00;93.00;;;;;;4920108;29;20208;-92
2023/05/15 20:56:54;;;;;;;4.57;3.10;;;32.00;93.50;;;;;;4921742;29;20209;-92
2023/05/15 20:59:25;;;;;;;6.60;3.60;;;31.60;93.90;;;;;;4905128;29;20242;-92
2023/05/15 21:01:56;;;;;;;3.75;3.42;;;31.70;93.50;;;;;;4925510;29;20256;-92
2023/05/15 21:04:27;;;;;;;6.00;3.65;;;31.50;93.60;;;;;;4925864;29;20200;-92
2023/05/15 21:06:58;;;;;;;4.00;3.03;;;31.60;93.40;;;;;;4902590;29;20295;-93
2023/05/15 21:09:29;;;;;;;4.40;3.25;;;31.20;93.10;;;;;;4901402;29;20257;-93
2023/05/15 21:12:02;;;;;;;4.63;3.50;;;31.20;93.40;;;;;;4911491;29;20212;-93
2023/05/15 21:14:34;;;;;;;3.20;2.90;;;31.30;93.80;;;;;;4915473;29;20301;-91
2023/05/15 21:17:06;;;;;;;3.92;3.05;;;31.30;94.20;;;;;;4908498;29;20217;-93
2023/05/15 21:19:38;;;;;;;3.05;2.83;;;31.20;93.00;;;;;;4909796;29;20276;-93
2023/05/15 21:22:08;;;;;;;6.32;3.28;;;31.20;93.60;;;;;;4914457;29;20209;-94
2023/05/15 21:24:39;;;;;;;4.68;2.97;;;31.20;93.00;;;;;;4910812;29;20731;-92
2023/05/15 21:27:13;;;;;;;4.35;2.90;;;31.10;92.30;;;;;;4902600;29;20209;-92
2023/05/15 21:29:44;;;;;;;5.35;3.40;;;31.10;93.30;;;;;;4912621;29;20224;-93
2023/05/15 21:32:15;;;;;;;3.75;3.28;;;31.10;92.90;;;;;;4920851;29;20209;-93
2023/05/15 21:34:46;;;;;;;6.32;3.33;;;31.10;92.90;;;;;;4924246;29;20579;-93
2023/05/15 21:37:17;;;;;;;3.70;3.40;;;31.10;94.10;;;;;;4936860;29;20281;-93
2023/05/15 21:39:48;;;;;;;3.25;2.83;;;31.10;92.90;;;;;;4904174;29;20237;-92
2023/05/15 21:42:21;;;;;;;5.38;3.10;;;31.20;93.10;;;;;;4933563;29;20692;-94
2023/05/15 21:44:53;;;;;;;4.90;3.38;;;31.40;93.40;;;;;;4929320;29;20577;-92
2023/05/15 21:47:23;;;;;;;3.85;3.55;;;31.40;93.80;;;;;;4920500;29;20232;-93
2023/05/15 21:49:55;;;;;;;3.97;2.58;;;31.50;92.70;;;;;;4933340;29;20579;-92
2023/05/15 21:52:26;;;;;;;4.32;2.88;;;31.60;92.00;;;;;;4908566;29;20213;-92
2023/05/15 21:54:57;;;;;;;4.45;3.33;;;31.70;92.80;;;;;;4910067;29;20204;-91
2023/05/15 21:57:30;;;;;;;7.50;3.10;;;31.70;92.20;;;;;;4919669;29;20213;-92
2023/05/15 22:00:03;;;;;;;5.50;3.13;;;31.70;91.80;;;;;;4918650;29;20249;-90
2023/05/15 22:02:34;;;;;;;3.30;2.97;;;31.70;91.80;;;;;;4907205;29;20202;-94
2023/05/15 22:05:07;;;;;;;3.35;2.97;;;31.50;91.60;;;;;;4912961;29;20296;-93
2023/05/15 22:07:39;;;;;;;5.13;3.00;;;31.30;91.60;;;;;;4901872;29;20210;-91
2023/05/15 22:10:15;;;;;;;3.25;2.88;;;31.20;91.70;;;;;;4908132;29;20212;-90
2023/05/15 22:12:48;;;;;;;5.15;3.03;;;31.20;92.40;;;;;;4911637;29;20213;-90
2023/05/15 22:15:19;;;;;;;5.00;2.80;;;31.10;92.20;;;;;;4918942;29;20213;-92
2023/05/15 22:17:51;;;;;;;5.82;3.50;;;31.20;92.50;;;;;;4931564;29;20899;-90
2023/05/15 22:20:22;;;;;;;7.18;3.17;;;31.30;93.10;;;;;;4926723;29;20591;-92
2023/05/15 22:22:54;;;;;;;5.95;3.30;;;31.20;93.40;;;;;;4915008;29;20681;-91
2023/05/15 22:25:25;;;;;;;4.75;3.10;;;31.40;94.10;;;;;;4918152;29;20281;-89
2023/05/15 22:27:58;;;;;;;3.40;3.10;;;31.20;92.10;;;;;;4902644;29;20952;-91
2023/05/15 22:30:29;;;;;;;7.18;3.38;;;31.20;93.40;;;;;;4900284;29;20213;-90
2023/05/15 22:33:00;;;;;;;5.07;3.17;;;31.10;92.60;;;;;;4915794;29;20264;-92
2023/05/15 22:35:32;;;;;;;3.08;2.78;;;31.20;91.90;;;;;;4913628;29;20221;-90
2023/05/15 22:38:04;;;;;;;3.90;3.00;;;31.20;91.50;;;;;;4918038;29;20221;-90
2023/05/15 22:40:36;;;;;;;3.97;2.95;;;31.00;93.50;;;;;;4907770;29;20241;-90
2023/05/15 22:43:09;;;;;;;4.43;3.40;;;31.00;92.40;;;;;;4910330;29;20213;-89
2023/05/15 22:45:40;;;;;;;19.25;3.50;;;31.20;92.60;;;;;;4918179;29;20213;-91
2023/05/15 22:48:12;;;;;;;7.25;3.35;;;31.20;92.70;;;;;;4903302;29;20231;-91
2023/05/15 22:50:44;;;;;;;4.03;3.25;;;31.20;92.60;;;;;;4912123;29;20217;-90
2023/05/15 22:53:15;;;;;;;3.85;2.63;;;31.10;93.20;;;;;;4920436;29;20260;-90
2023/05/15 22:55:46;;;;;;;4.32;3.03;;;31.30;92.90;;;;;;4930164;29;20249;-92
2023/05/15 22:58:20;;;;;;;2.47;2.28;;;31.80;92.30;;;;;;4938889;29;20193;-89
2023/05/15 23:00:51;;;;;;;2.60;2.40;;;32.40;90.00;;;;;;4926876;29;20240;-91
2023/05/15 23:03:23;;;;;;;4.63;2.50;;;33.10;89.90;;;;;;4917543;29;20309;-90
2023/05/15 23:06:09;;;;;;;3.47;2.63;;;33.40;88.60;;;;;;4899560;29;20218;-88
2023/05/15 23:08:40;;;;;;;3.75;2.50;;;33.40;88.60;;;;;;4914660;29;20220;-89
2023/05/15 23:11:12;;;;;;;6.60;2.90;;;33.70;88.00;;;;;;4902264;29;20294;-91
2023/05/15 23:13:45;;;;;;;3.13;2.75;;;33.50;87.60;;;;;;4914181;29;20574;-91
2023/05/15 23:16:16;;;;;;;7.07;3.30;;;32.90;87.40;;;;;;4914830;29;20216;-86
2023/05/15 23:18:47;;;;;;;3.42;3.13;;;33.00;89.40;;;;;;4897750;29;20579;-87
2023/05/15 23:21:18;;;;;;;3.85;2.85;;;32.80;89.40;;;;;;4915628;29;20228;-86
2023/05/15 23:23:49;;;;;;;2.83;2.53;;;32.70;89.40;;;;;;4922622;29;20228;-86
2023/05/15 23:26:20;;;;;;;6.97;2.80;;;32.40;88.40;;;;;;4912751;29;20213;-87
2023/05/15 23:28:53;;;;;;;3.80;2.80;;;32.20;88.60;;;;;;4914535;29;20209;-86
2023/05/15 23:31:24;;;;;;;3.50;3.00;;;32.10;89.20;;;;;;4916542;29;20209;-87
2023/05/15 23:33:54;;;;;;;3.15;2.85;;;32.00;90.20;;;;;;4910049;29;20236;-87
2023/05/15 23:36:25;;;;;;;3.50;3.00;;;32.00;89.70;;;;;;4919238;29;20208;-87
2023/05/15 23:38:56;;;;;;;3.33;3.00;;;32.00;90.70;;;;;;4926757;29;20633;-87
2023/05/15 23:41:27;;;;;;;4.50;3.00;;;31.70;89.60;;;;;;4915837;29;20244;-87
2023/05/15 23:44:00;;;;;;;5.10;2.80;;;31.80;89.60;;;;;;4915127;29;20213;-86
2023/05/15 23:46:30;;;;;;;4.30;2.58;;;31.90;90.70;;;;;;4918557;29;20211;-88
2023/05/15 23:49:01;;;;;;;2.80;2.60;;;32.10;90.60;;;;;;4923811;29;20221;-87
2023/05/15 23:51:33;;;;;;;3.58;2.70;;;32.30;90.30;;;;;;4920506;29;20234;-87
2023/05/15 23:54:04;;;;;;;5.53;2.67;;;32.40;88.00;;;;;;4899989;29;20661;-87
2023/05/15 23:56:35;;;;;;;2.95;2.60;;;32.70;87.10;;;;;;4913676;29;20209;-86
2023/05/15 23:59:08;;;;;;;3.95;2.78;;;33.10;89.80;;;;;;4911774;29;20268;-87
